Time;durP1;ratioP1;P1;durP2;ratioP2;P2;SDS_P1;SDS_P2;PMS_P1;PMS_P2;Temp;Humidity;BMP_temperature;BMP_pressure;BME280_temperature;BME280_humidity;BME280_pressure;Samples;Min_cycle;Max_cycle;Signal;HPM_P1;HPM_P2
2020/12/23 00:03:07;;;;;;;1.37;1.27;;;14.80;50.10;;;;;;10410201;28;20230;-68
2020/12/23 00:08:10;;;;;;;2.10;1.30;;;14.80;50.10;;;;;;10407607;28;20252;-68
2020/12/23 00:13:15;;;;;;;1.30;1.20;;;14.70;50.00;;;;;;10412202;28;20649;-68
2020/12/23 00:18:17;;;;;;;1.20;1.10;;;14.60;49.90;;;;;;10411960;28;20225;-68
2020/12/23 00:23:20;;;;;;;1.50;1.00;;;14.60;49.90;;;;;;10414041;28;20219;-68
2020/12/23 00:28:22;;;;;;;1.23;0.90;;;14.50;50.00;;;;;;10407141;28;20237;-68
2020/12/23 00:33:24;;;;;;;1.57;1.20;;;14.50;50.20;;;;;;10418134;28;20235;-68
2020/12/23 00:38:27;;;;;;;0.90;0.90;;;14.60;50.40;;;;;;10407050;28;20612;-68
2020/12/23 00:43:30;;;;;;;1.10;1.00;;;14.50;50.80;;;;;;10411072;28;20611;-68
2020/12/23 00:48:32;;;;;;;0.90;0.90;;;14.60;50.20;;;;;;10416374;28;20225;-68
2020/12/23 00:53:35;;;;;;;1.53;1.03;;;14.60;50.20;;;;;;10410210;28;20241;-68
2020/12/23 00:58:37;;;;;;;1.03;0.97;;;14.60;50.30;;;;;;10406655;28;20313;-68
2020/12/23 01:03:39;;;;;;;1.00;1.00;;;14.60;50.50;;;;;;10413331;28;20320;-68
2020/12/23 01:08:43;;;;;;;0.90;0.90;;;14.60;50.60;;;;;;10410844;28;20244;-68
2020/12/23 01:13:45;;;;;;;1.00;1.00;;;14.70;50.60;;;;;;10412210;28;20325;-68
2020/12/23 01:18:47;;;;;;;0.90;0.90;;;14.80;50.70;;;;;;10410233;28;20745;-68
2020/12/23 01:23:51;;;;;;;0.70;0.70;;;14.80;50.50;;;;;;10414693;28;20300;-68
2020/12/23 01:28:53;;;;;;;0.90;0.90;;;14.90;50.20;;;;;;10404921;28;20311;-68
2020/12/23 01:33:55;;;;;;;0.70;0.70;;;15.00;50.30;;;;;;10420885;28;20603;-68
2020/12/23 01:38:58;;;;;;;0.60;0.60;;;15.00;50.30;;;;;;10417850;28;20599;-68
2020/12/23 01:44:00;;;;;;;0.90;0.87;;;15.10;50.20;;;;;;10422356;28;20603;-68
2020/12/23 01:49:04;;;;;;;0.77;0.77;;;15.20;50.10;;;;;;10419035;28;20236;-68
2020/12/23 01:54:07;;;;;;;0.70;0.70;;;15.20;49.60;;;;;;10416721;28;20229;-68
2020/12/23 01:59:09;;;;;;;0.70;0.70;;;15.30;49.50;;;;;;10420240;28;20225;-75
2020/12/23 02:04:14;;;;;;;0.97;0.90;;;15.30;49.50;;;;;;10421701;28;20666;-74
2020/12/23 02:09:19;;;;;;;1.10;1.00;;;15.40;49.40;;;;;;10412711;28;20230;-74
2020/12/23 02:14:21;;;;;;;1.70;0.80;;;15.40;49.20;;;;;;10416120;28;20247;-74
2020/12/23 02:19:23;;;;;;;0.83;0.70;;;15.50;49.10;;;;;;10428544;28;20217;-74
2020/12/23 02:24:28;;;;;;;0.70;0.70;;;15.50;48.60;;;;;;10414784;28;20847;-74
2020/12/23 02:29:30;;;;;;;0.80;0.80;;;15.60;48.40;;;;;;10415325;28;20239;-74
2020/12/23 02:34:32;;;;;;;0.80;0.80;;;15.60;48.80;;;;;;10423802;28;20233;-74
2020/12/23 02:39:36;;;;;;;0.60;0.60;;;15.70;48.70;;;;;;10419827;28;20579;-74
2020/12/23 02:44:38;;;;;;;0.77;0.70;;;15.80;48.10;;;;;;10420465;28;20238;-74
2020/12/23 02:49:41;;;;;;;0.80;0.80;;;15.90;48.30;;;;;;10414997;28;20848;-74
2020/12/23 02:54:44;;;;;;;0.70;0.70;;;16.00;48.10;;;;;;10420231;28;20234;-74
2020/12/23 02:59:46;;;;;;;0.70;0.70;;;16.00;47.70;;;;;;10424013;28;20221;-74
2020/12/23 03:04:48;;;;;;;0.80;0.80;;;16.00;47.80;;;;;;10421795;28;20234;-74
2020/12/23 03:09:51;;;;;;;0.70;0.70;;;16.10;47.50;;;;;;10417038;28;20320;-74
2020/12/23 03:14:54;;;;;;;0.70;0.70;;;16.10;47.20;;;;;;10415830;28;20233;-74
2020/12/23 03:19:56;;;;;;;0.80;0.80;;;16.20;47.40;;;;;;10408046;28;20239;-75
2020/12/23 03:24:59;;;;;;;0.70;0.70;;;16.10;47.20;;;;;;10415626;28;20222;-74
2020/12/23 03:30:01;;;;;;;0.70;0.70;;;16.20;46.80;;;;;;10418447;28;20702;-74
2020/12/23 03:35:03;;;;;;;0.63;0.63;;;16.20;47.00;;;;;;10420735;28;20228;-74
2020/12/23 03:40:06;;;;;;;0.60;0.60;;;16.20;46.70;;;;;;10416625;28;20251;-74
2020/12/23 03:45:08;;;;;;;0.60;0.60;;;16.20;46.30;;;;;;10414452;28;20633;-74
2020/12/23 03:50:10;;;;;;;0.80;0.80;;;16.20;46.60;;;;;;10420450;28;20222;-74
2020/12/23 03:55:14;;;;;;;0.60;0.60;;;16.20;46.60;;;;;;10421372;28;20704;-74
2020/12/23 04:00:16;;;;;;;0.60;0.60;;;16.20;46.20;;;;;;10426693;28;20240;-74
2020/12/23 04:05:18;;;;;;;0.60;0.60;;;16.20;46.50;;;;;;10417419;28;20239;-74
2020/12/23 04:10:21;;;;;;;0.70;0.60;;;16.20;46.50;;;;;;10421534;28;20221;-74
2020/12/23 04:15:23;;;;;;;2.70;0.70;;;16.20;46.00;;;;;;10411396;28;20229;-74
2020/12/23 04:20:25;;;;;;;1.37;0.73;;;16.30;46.40;;;;;;10415194;28;20235;-74
2020/12/23 04:25:28;;;;;;;0.60;0.60;;;16.30;46.10;;;;;;10409051;28;20790;-74
2020/12/23 04:30:30;;;;;;;0.70;0.70;;;16.30;45.80;;;;;;10413549;28;21039;-74
2020/12/23 04:35:33;;;;;;;0.63;0.63;;;16.30;46.10;;;;;;10414701;28;20234;-74
2020/12/23 04:40:39;;;;;;;0.70;0.70;;;16.40;45.90;;;;;;10411468;28;20221;-74
2020/12/23 04:45:41;;;;;;;0.80;0.80;;;16.40;45.60;;;;;;10422385;28;20236;-74
2020/12/23 04:50:44;;;;;;;1.10;1.00;;;16.40;45.60;;;;;;10412330;28;20718;-75
2020/12/23 04:55:47;;;;;;;0.87;0.87;;;16.40;45.60;;;;;;10412930;28;20244;-74
2020/12/23 05:00:49;;;;;;;0.70;0.70;;;16.40;45.60;;;;;;10422507;28;20725;-74
2020/12/23 05:05:52;;;;;;;1.20;0.93;;;16.40;45.60;;;;;;10409170;28;20240;-74
2020/12/23 05:10:55;;;;;;;1.67;1.57;;;16.40;45.50;;;;;;10433018;28;20224;-74
2020/12/23 05:15:57;;;;;;;1.50;1.40;;;16.40;45.40;;;;;;10429206;28;20233;-74
2020/12/23 05:21:00;;;;;;;0.90;0.90;;;16.40;45.60;;;;;;10426473;28;20231;-75
2020/12/23 05:26:05;;;;;;;1.03;1.03;;;16.40;45.50;;;;;;10431813;28;20228;-74
2020/12/23 05:31:09;;;;;;;0.80;0.80;;;16.40;44.50;;;;;;10430383;28;20786;-74
2020/12/23 05:36:14;;;;;;;1.50;1.07;;;16.40;45.20;;;;;;10413371;28;20242;-74
2020/12/23 05:41:17;;;;;;;1.40;1.30;;;16.40;44.50;;;;;;10415119;28;20241;-74
2020/12/23 05:46:20;;;;;;;0.87;0.87;;;16.40;44.70;;;;;;10433853;28;20237;-74
2020/12/23 05:51:22;;;;;;;1.17;1.07;;;16.40;44.90;;;;;;10420257;28;20236;-73
2020/12/23 05:56:34;;;;;;;0.80;0.80;;;16.40;44.90;;;;;;10428403;28;20689;-74
2020/12/23 06:01:38;;;;;;;1.30;1.20;;;16.40;43.80;;;;;;10427958;28;20252;-74
2020/12/23 06:06:43;;;;;;;0.80;0.80;;;16.40;44.70;;;;;;10415760;28;20231;-74
2020/12/23 06:11:55;;;;;;;0.70;0.70;;;16.40;44.20;;;;;;10435675;28;20221;-74
2020/12/23 06:17:07;;;;;;;0.63;0.63;;;16.40;43.60;;;;;;10419666;28;20228;-74
2020/12/23 06:22:10;;;;;;;0.60;0.60;;;16.40;43.80;;;;;;10418060;28;20213;-73
2020/12/23 06:27:15;;;;;;;0.73;0.73;;;16.40;44.30;;;;;;10424302;28;20221;-73
2020/12/23 06:32:22;;;;;;;0.70;0.70;;;16.40;44.40;;;;;;10418601;28;20336;-73
2020/12/23 06:37:26;;;;;;;3.10;1.20;;;16.30;43.80;;;;;;10425052;28;20315;-74
2020/12/23 06:42:30;;;;;;;1.40;1.30;;;16.30;44.10;;;;;;10415629;28;20226;-73
2020/12/23 06:47:33;;;;;;;4.10;3.03;;;16.30;44.10;;;;;;10427498;28;20253;-73
2020/12/23 06:52:46;;;;;;;1.80;1.70;;;16.20;44.10;;;;;;10415962;28;20281;-73
2020/12/23 06:57:56;;;;;;;1.10;1.10;;;16.20;43.50;;;;;;10428843;28;20241;-74
2020/12/23 07:03:00;;;;;;;0.80;0.80;;;16.10;44.20;;;;;;10416991;28;20226;-74
2020/12/23 07:08:04;;;;;;;0.80;0.80;;;16.10;44.30;;;;;;10420758;28;20606;-73
2020/12/23 07:13:10;;;;;;;0.77;0.77;;;16.10;43.80;;;;;;10417042;28;20243;-73
2020/12/23 07:18:14;;;;;;;1.40;1.20;;;16.10;43.80;;;;;;10416904;28;20706;-73
2020/12/23 07:23:18;;;;;;;1.40;1.30;;;16.10;43.90;;;;;;10426786;28;20225;-74
2020/12/23 07:28:27;;;;;;;2.00;1.87;;;16.10;43.90;;;;;;10415103;28;20229;-74
2020/12/23 07:33:30;;;;;;;1.60;1.50;;;16.10;43.20;;;;;;10421012;28;20233;-74
2020/12/23 07:38:35;;;;;;;1.53;1.20;;;16.10;43.90;;;;;;10410818;28;20239;-74
2020/12/23 07:43:38;;;;;;;0.90;0.90;;;16.10;43.70;;;;;;10422672;28;20572;-74
2020/12/23 07:48:40;;;;;;;0.77;0.77;;;16.10;43.70;;;;;;10425400;28;20249;-74
2020/12/23 07:53:42;;;;;;;0.70;0.70;;;16.10;44.70;;;;;;10424221;28;20271;-74
2020/12/23 07:58:46;;;;;;;0.90;0.90;;;16.10;44.00;;;;;;10422083;28;20228;-74
2020/12/23 08:03:48;;;;;;;1.33;1.10;;;16.00;43.70;;;;;;10418801;28;20705;-74
2020/12/23 08:08:51;;;;;;;1.50;1.40;;;16.00;43.80;;;;;;10415238;28;20230;-74
2020/12/23 08:13:54;;;;;;;1.87;1.77;;;16.00;44.00;;;;;;10421904;28;20229;-74
2020/12/23 08:18:56;;;;;;;1.90;1.47;;;16.00;43.90;;;;;;10414415;28;20232;-74
2020/12/23 08:23:58;;;;;;;1.70;1.60;;;15.90;44.20;;;;;;10418974;28;20243;-74
2020/12/23 08:29:01;;;;;;;1.93;1.40;;;15.90;44.30;;;;;;10422145;28;20609;-74
2020/12/23 08:34:06;;;;;;;4.50;2.90;;;15.90;44.10;;;;;;10422117;28;20579;-74
2020/12/23 08:39:09;;;;;;;4.03;2.70;;;15.80;44.00;;;;;;10418129;28;20284;-73
2020/12/23 08:44:19;;;;;;;4.87;4.23;;;15.80;44.40;;;;;;10420552;28;20709;-73
2020/12/23 08:49:22;;;;;;;10.27;9.27;;;15.80;44.50;;;;;;10428625;28;20708;-68
2020/12/23 08:54:24;;;;;;;9.10;8.20;;;15.70;44.10;;;;;;10428795;28;20225;-68
2020/12/23 08:59:38;;;;;;;12.70;11.40;;;15.70;44.50;;;;;;10422068;28;20236;-67
2020/12/23 09:04:46;;;;;;;6.40;5.80;;;15.70;44.50;;;;;;10426523;28;20257;-67
2020/12/23 09:09:49;;;;;;;4.77;4.27;;;15.70;44.80;;;;;;10426322;28;20233;-67
2020/12/23 09:14:52;;;;;;;2.60;2.40;;;15.70;45.00;;;;;;10417917;28;20611;-67
2020/12/23 09:20:00;;;;;;;2.30;2.07;;;15.60;44.50;;;;;;10423860;28;20214;-67
2020/12/23 09:25:20;;;;;;;2.37;2.17;;;15.70;44.80;;;;;;10426135;28;20230;-68
2020/12/23 09:30:34;;;;;;;2.20;2.10;;;15.70;44.30;;;;;;10428442;28;20308;-68
2020/12/23 09:35:38;;;;;;;2.50;2.30;;;15.70;44.50;;;;;;10432679;28;20263;-67
2020/12/23 09:40:42;;;;;;;2.50;2.30;;;15.70;45.00;;;;;;10426370;28;20221;-74
2020/12/23 09:45:47;;;;;;;2.00;1.90;;;15.70;45.00;;;;;;10420926;28;20232;-74
2020/12/23 09:50:50;;;;;;;5.40;3.30;;;15.70;45.00;;;;;;10414432;28;20228;-74
2020/12/23 09:55:55;;;;;;;2.07;1.97;;;15.70;45.00;;;;;;10430303;28;20696;-74
2020/12/23 10:00:58;;;;;;;1.60;1.50;;;15.70;45.00;;;;;;10424506;28;20237;-74
2020/12/23 10:06:00;;;;;;;2.00;1.80;;;15.70;45.00;;;;;;10416859;28;20329;-74
2020/12/23 10:11:02;;;;;;;2.60;2.40;;;15.70;45.00;;;;;;10420551;28;20221;-73
2020/12/23 10:16:05;;;;;;;4.43;4.03;;;15.70;45.00;;;;;;10419107;28;20291;-74
2020/12/23 10:21:09;;;;;;;4.27;3.97;;;15.80;45.00;;;;;;10419361;28;20237;-74
2020/12/23 10:26:14;;;;;;;5.70;5.20;;;15.80;45.00;;;;;;10429583;28;20324;-74
2020/12/23 10:31:17;;;;;;;4.17;3.70;;;15.90;45.10;;;;;;10429020;28;20229;-74
2020/12/23 10:36:19;;;;;;;3.03;2.73;;;16.00;45.20;;;;;;10424002;28;20260;-74
2020/12/23 10:41:21;;;;;;;3.40;3.20;;;16.00;45.20;;;;;;10438528;28;20247;-74
2020/12/23 10:46:24;;;;;;;4.17;3.87;;;16.20;45.40;;;;;;10427124;28;20713;-74
2020/12/23 10:51:27;;;;;;;4.53;4.03;;;16.20;45.30;;;;;;10439553;28;20333;-74
2020/12/23 10:56:29;;;;;;;3.30;3.00;;;16.30;45.30;;;;;;10429590;28;20233;-74
2020/12/23 11:01:32;;;;;;;1.73;1.63;;;16.40;44.50;;;;;;10428280;28;20233;-74
2020/12/23 11:06:34;;;;;;;2.10;1.90;;;16.40;44.10;;;;;;10435007;28;20231;-74
2020/12/23 11:11:37;;;;;;;1.70;1.60;;;16.50;44.50;;;;;;10429070;28;20236;-74
2020/12/23 11:16:40;;;;;;;1.53;1.43;;;16.50;44.30;;;;;;10443105;28;20309;-75
2020/12/23 11:21:42;;;;;;;2.40;1.90;;;16.60;44.00;;;;;;10422960;28;20229;-74
2020/12/23 11:26:44;;;;;;;2.63;1.50;;;16.60;44.20;;;;;;10425589;28;20226;-74
2020/12/23 11:31:50;;;;;;;1.77;1.50;;;16.60;44.20;;;;;;10422172;28;20225;-74
2020/12/23 11:36:56;;;;;;;6.33;5.73;;;16.60;43.80;;;;;;10445064;28;20230;-74
2020/12/23 11:42:00;;;;;;;2.27;1.90;;;16.60;44.00;;;;;;10430087;28;20744;-74
2020/12/23 11:47:03;;;;;;;1.60;1.50;;;16.60;44.30;;;;;;10422184;28;20756;-73
2020/12/23 11:52:05;;;;;;;6.80;4.40;;;16.60;44.50;;;;;;10417546;28;20260;-73
2020/12/23 11:57:07;;;;;;;5.17;3.13;;;16.50;44.60;;;;;;10437472;28;20604;-73
2020/12/23 12:02:10;;;;;;;2.50;2.30;;;16.50;44.80;;;;;;10427188;28;20232;-74
2020/12/23 12:07:12;;;;;;;5.73;5.13;;;16.50;44.60;;;;;;10425163;28;20235;-73
2020/12/23 12:12:15;;;;;;;3.00;2.73;;;16.50;44.70;;;;;;10441715;28;20229;-74
2020/12/23 12:17:18;;;;;;;4.17;3.27;;;16.50;44.70;;;;;;10416897;28;20851;-73
2020/12/23 12:22:20;;;;;;;2.03;1.93;;;16.40;44.90;;;;;;10430596;28;20744;-74
2020/12/23 12:27:22;;;;;;;2.73;2.53;;;16.50;45.20;;;;;;10413576;28;20224;-74
2020/12/23 12:32:25;;;;;;;1.70;1.60;;;16.50;45.40;;;;;;10436674;28;20227;-74
2020/12/23 12:37:28;;;;;;;2.07;1.60;;;16.50;45.60;;;;;;10413301;28;20602;-74
2020/12/23 12:42:30;;;;;;;2.30;1.20;;;16.60;45.60;;;;;;10426549;28;20229;-74
2020/12/23 12:47:33;;;;;;;10.43;8.17;;;16.60;45.40;;;;;;10420234;28;20237;-74
2020/12/23 12:52:35;;;;;;;5.03;3.80;;;16.60;45.30;;;;;;10413099;28;20593;-74
2020/12/23 12:57:37;;;;;;;4.80;4.33;;;16.60;45.10;;;;;;10426900;28;20235;-74
2020/12/23 13:02:41;;;;;;;3.40;3.03;;;16.60;45.20;;;;;;10426671;28;20315;-74
2020/12/23 13:07:43;;;;;;;4.07;2.10;;;16.60;45.40;;;;;;10429146;28;20265;-74
2020/12/23 13:12:45;;;;;;;3.40;3.10;;;16.60;45.60;;;;;;10439265;28;20232;-74
2020/12/23 13:17:48;;;;;;;3.00;2.80;;;16.60;45.70;;;;;;10433287;28;20719;-74
2020/12/23 13:22:50;;;;;;;3.27;3.00;;;16.60;45.50;;;;;;10418949;28;20232;-74
2020/12/23 13:27:52;;;;;;;3.13;2.87;;;16.60;45.60;;;;;;10435643;28;20229;-74
2020/12/23 13:32:56;;;;;;;2.97;2.40;;;16.50;45.60;;;;;;10433347;28;20232;-74
2020/12/23 13:37:58;;;;;;;3.00;2.20;;;16.50;45.30;;;;;;10436155;28;20239;-74
2020/12/23 13:43:00;;;;;;;4.33;3.93;;;16.50;45.40;;;;;;10437415;28;20316;-74
2020/12/23 13:48:03;;;;;;;3.93;3.63;;;16.50;45.50;;;;;;10436738;28;20229;-73
2020/12/23 13:53:07;;;;;;;7.07;6.37;;;16.50;45.60;;;;;;10429374;28;20649;-74
2020/12/23 13:58:09;;;;;;;9.27;7.87;;;16.50;45.60;;;;;;10427949;28;20240;-74
2020/12/23 14:03:12;;;;;;;5.80;5.20;;;16.40;45.60;;;;;;10421303;28;20235;-74
2020/12/23 14:08:14;;;;;;;4.67;4.27;;;16.50;45.60;;;;;;10432856;28;20239;-74
2020/12/23 14:13:16;;;;;;;5.87;5.40;;;16.50;45.60;;;;;;10434605;28;20217;-74
2020/12/23 14:18:19;;;;;;;7.30;6.60;;;16.50;45.60;;;;;;10434766;28;20224;-74
2020/12/23 14:23:22;;;;;;;5.40;5.00;;;16.50;45.60;;;;;;10436439;28;20242;-74
2020/12/23 14:28:24;;;;;;;3.80;3.50;;;16.50;45.60;;;;;;10433029;28;20231;-74
2020/12/23 14:33:27;;;;;;;5.80;4.23;;;16.50;45.60;;;;;;10429167;28;20729;-74
2020/12/23 14:38:30;;;;;;;5.97;5.47;;;16.40;45.60;;;;;;10441799;28;20237;-74
2020/12/23 14:43:32;;;;;;;7.67;7.03;;;16.40;45.60;;;;;;10424742;28;20229;-74
2020/12/23 14:48:35;;;;;;;4.60;4.20;;;16.50;45.70;;;;;;10427566;28;20292;-74
2020/12/23 14:53:37;;;;;;;2.77;2.57;;;16.40;45.50;;;;;;10444773;28;20239;-74
2020/12/23 14:58:39;;;;;;;3.40;3.10;;;16.40;45.50;;;;;;10433411;28;20236;-74
2020/12/23 15:03:42;;;;;;;3.30;3.00;;;16.30;45.20;;;;;;10426724;28;20232;-74
2020/12/23 15:08:46;;;;;;;4.00;3.60;;;16.30;45.50;;;;;;10431361;28;20225;-74
2020/12/23 15:13:48;;;;;;;5.50;4.70;;;16.20;45.40;;;;;;10423759;28;20709;-74
2020/12/23 15:18:51;;;;;;;4.07;3.70;;;16.20;45.40;;;;;;10420699;28;20233;-74
2020/12/23 15:23:53;;;;;;;4.90;3.90;;;16.10;45.30;;;;;;10432549;28;20264;-74
2020/12/23 15:28:55;;;;;;;6.73;6.13;;;16.10;45.30;;;;;;10426338;28;20225;-74
2020/12/23 15:33:59;;;;;;;8.73;7.93;;;16.10;45.30;;;;;;10428631;28;20312;-74
2020/12/23 15:39:01;;;;;;;15.90;10.47;;;16.10;45.30;;;;;;10438049;28;20615;-74
2020/12/23 15:44:03;;;;;;;4.60;3.40;;;16.00;45.20;;;;;;10431413;28;20257;-73
2020/12/23 15:49:08;;;;;;;3.13;2.80;;;16.00;45.20;;;;;;10429617;28;20236;-73
2020/12/23 15:54:10;;;;;;;3.17;2.50;;;16.00;45.20;;;;;;10410320;28;20615;-74
2020/12/23 15:59:12;;;;;;;2.63;2.43;;;16.00;45.20;;;;;;10425224;28;20237;-74
2020/12/23 16:04:16;;;;;;;3.17;2.87;;;15.90;45.10;;;;;;10444072;28;20243;-74
2020/12/23 16:09:18;;;;;;;2.40;2.10;;;15.90;45.10;;;;;;10433793;28;20228;-74
2020/12/23 16:14:20;;;;;;;6.60;6.00;;;15.90;45.10;;;;;;10422015;28;20234;-74
2020/12/23 16:19:24;;;;;;;12.17;10.97;;;15.80;45.00;;;;;;10425066;28;20834;-74
2020/12/23 16:24:26;;;;;;;12.93;11.57;;;15.80;45.00;;;;;;10434810;28;20233;-74
2020/12/23 16:29:28;;;;;;;10.67;9.67;;;15.70;45.00;;;;;;10410318;28;20225;-74
2020/12/23 16:34:31;;;;;;;5.90;5.37;;;15.50;45.00;;;;;;10419377;28;20229;-74
2020/12/23 16:39:34;;;;;;;7.43;6.63;;;15.40;45.50;;;;;;10432646;28;20324;-74
2020/12/23 16:44:37;;;;;;;7.57;6.80;;;15.30;45.80;;;;;;10419712;28;20626;-74
2020/12/23 16:49:40;;;;;;;7.77;7.07;;;15.20;46.00;;;;;;10418946;28;20225;-74
2020/12/23 16:54:42;;;;;;;13.53;12.13;;;15.00;46.50;;;;;;10428075;28;20233;-74
2020/12/23 16:59:45;;;;;;;9.60;8.70;;;15.00;46.50;;;;;;10424620;28;20229;-74
2020/12/23 17:04:48;;;;;;;8.70;7.80;;;14.90;46.70;;;;;;10429027;28;20310;-74
2020/12/23 17:09:50;;;;;;;9.37;8.47;;;14.90;46.80;;;;;;10428622;28;20225;-74
2020/12/23 17:14:52;;;;;;;8.23;6.90;;;14.90;46.80;;;;;;10442562;28;20236;-74
2020/12/23 17:19:55;;;;;;;7.90;7.20;;;14.90;46.90;;;;;;10428490;28;20226;-74
2020/12/23 17:24:57;;;;;;;8.93;8.13;;;14.90;47.20;;;;;;10442241;28;20221;-74
2020/12/23 17:29:59;;;;;;;9.67;8.80;;;14.90;46.90;;;;;;10440228;28;20236;-74
2020/12/23 17:35:03;;;;;;;9.20;8.30;;;14.90;47.00;;;;;;10423875;28;20220;-74
2020/12/23 17:40:05;;;;;;;13.03;11.67;;;15.00;47.10;;;;;;10424613;28;20218;-74
2020/12/23 17:45:08;;;;;;;13.80;10.87;;;15.00;46.90;;;;;;10423322;28;20308;-73
2020/12/23 17:50:11;;;;;;;11.07;9.87;;;14.90;46.80;;;;;;10422766;28;20304;-74
2020/12/23 17:55:14;;;;;;;22.97;19.13;;;15.00;47.00;;;;;;10424009;28;20670;-73
2020/12/23 18:00:16;;;;;;;19.93;17.83;;;15.00;46.80;;;;;;10433085;28;20227;-74
2020/12/23 18:05:19;;;;;;;22.93;20.40;;;15.00;46.70;;;;;;10428582;28;20701;-74
2020/12/23 18:10:21;;;;;;;15.13;13.57;;;15.00;46.80;;;;;;10429422;28;20909;-74
2020/12/23 18:15:23;;;;;;;14.30;12.83;;;14.90;46.60;;;;;;10437202;28;20225;-74
2020/12/23 18:20:26;;;;;;;15.07;13.47;;;14.90;46.70;;;;;;10433240;28;20221;-74
2020/12/23 18:25:29;;;;;;;11.10;9.87;;;14.90;46.80;;;;;;10448147;28;20236;-74
2020/12/23 18:30:31;;;;;;;10.37;8.23;;;14.90;46.60;;;;;;10432034;28;20646;-74
2020/12/23 18:35:35;;;;;;;15.27;13.03;;;14.80;46.70;;;;;;10450727;28;20250;-74
2020/12/23 18:40:37;;;;;;;10.47;9.37;;;14.70;46.90;;;;;;10424034;28;20304;-74
2020/12/23 18:45:40;;;;;;;8.80;8.00;;;14.70;46.80;;;;;;10426265;28;20221;-74
2020/12/23 18:50:43;;;;;;;9.57;8.13;;;14.70;47.00;;;;;;10432070;28;20225;-74
2020/12/23 18:55:45;;;;;;;28.40;20.43;;;14.70;47.20;;;;;;10431114;28;20225;-74
2020/12/23 19:00:48;;;;;;;27.10;19.23;;;14.70;47.20;;;;;;10416662;28;20226;-74
2020/12/23 19:05:51;;;;;;;30.07;21.30;;;14.70;47.00;;;;;;10430436;28;20233;-74
2020/12/23 19:10:53;;;;;;;44.27;27.67;;;14.70;47.20;;;;;;10442901;28;20248;-74
2020/12/23 19:15:55;;;;;;;31.57;19.97;;;14.60;47.00;;;;;;10443560;28;20590;-74
2020/12/23 19:20:58;;;;;;;13.70;9.60;;;14.60;47.20;;;;;;10438190;28;20225;-74
2020/12/23 19:26:01;;;;;;;7.47;6.47;;;14.70;47.20;;;;;;10417853;28;20225;-74
2020/12/23 19:31:04;;;;;;;7.97;5.97;;;14.70;47.00;;;;;;10422209;28;20237;-74
2020/12/23 19:36:07;;;;;;;7.77;7.07;;;14.70;47.20;;;;;;10426122;28;20233;-73
2020/12/23 19:41:14;;;;;;;7.93;7.13;;;14.60;47.20;;;;;;10433759;28;20235;-74
2020/12/23 19:46:17;;;;;;;11.43;9.37;;;14.60;47.40;;;;;;10437481;28;20598;-74
2020/12/23 19:51:20;;;;;;;9.97;8.97;;;14.60;47.10;;;;;;10414547;28;20691;-74
2020/12/23 19:56:22;;;;;;;8.90;8.00;;;14.60;47.30;;;;;;10423933;28;20579;-74
2020/12/23 20:01:24;;;;;;;8.80;7.90;;;14.50;47.00;;;;;;10424352;28;20321;-74
2020/12/23 20:06:27;;;;;;;7.83;7.03;;;14.50;47.00;;;;;;10429118;28;20237;-74
2020/12/23 20:11:29;;;;;;;7.70;6.90;;;14.50;47.10;;;;;;10415431;28;20244;-74
2020/12/23 20:16:31;;;;;;;7.10;6.40;;;14.50;47.00;;;;;;10444600;28;20244;-74
2020/12/23 20:21:37;;;;;;;7.13;6.43;;;14.50;47.00;;;;;;10429389;28;20240;-74
2020/12/23 20:26:39;;;;;;;3.30;3.00;;;14.50;47.40;;;;;;10421454;28;20332;-74
2020/12/23 20:31:44;;;;;;;2.50;2.30;;;14.40;46.70;;;;;;10424220;28;20225;-74
2020/12/23 20:36:51;;;;;;;2.47;2.27;;;14.50;46.80;;;;;;10418799;28;20221;-74
2020/12/23 20:42:00;;;;;;;2.80;2.60;;;14.50;46.90;;;;;;10422693;28;20225;-74
2020/12/23 20:47:03;;;;;;;2.93;2.63;;;14.50;47.40;;;;;;10431928;28;20225;-73
2020/12/23 20:52:09;;;;;;;3.63;2.80;;;14.50;46.90;;;;;;10433021;28;20225;-74
2020/12/23 20:57:12;;;;;;;2.90;2.70;;;14.40;46.90;;;;;;10442901;28;20271;-74
2020/12/23 21:02:14;;;;;;;3.37;2.73;;;14.40;46.80;;;;;;10431925;28;20752;-74
2020/12/23 21:07:17;;;;;;;3.40;3.10;;;14.40;46.90;;;;;;10451920;28;20306;-74
2020/12/23 21:12:22;;;;;;;4.13;3.40;;;14.40;47.30;;;;;;10434965;28;20221;-74
2020/12/23 21:17:25;;;;;;;3.00;2.80;;;14.40;47.50;;;;;;10446521;28;20265;-74
2020/12/23 21:22:28;;;;;;;4.47;3.30;;;14.40;47.30;;;;;;10443023;28;20783;-74
2020/12/23 21:27:30;;;;;;;3.73;3.20;;;14.40;47.50;;;;;;10440157;28;20321;-74
2020/12/23 21:32:32;;;;;;;3.20;3.00;;;14.40;47.30;;;;;;10446253;28;20233;-74
2020/12/23 21:37:36;;;;;;;3.50;3.20;;;14.40;47.30;;;;;;10428780;28;20253;-74
2020/12/23 21:42:38;;;;;;;3.30;3.00;;;14.40;47.40;;;;;;10437949;28;20686;-74
2020/12/23 21:47:40;;;;;;;3.60;3.30;;;14.40;47.00;;;;;;10435214;28;20235;-74
2020/12/23 21:52:43;;;;;;;3.20;2.90;;;14.30;47.00;;;;;;10447762;28;20221;-74
2020/12/23 21:57:45;;;;;;;3.07;2.83;;;14.20;47.30;;;;;;10433318;28;20228;-74
2020/12/23 22:02:48;;;;;;;3.10;2.90;;;14.10;47.40;;;;;;10441903;28;20233;-74
2020/12/23 22:07:51;;;;;;;2.50;2.40;;;13.90;47.60;;;;;;10429048;28;20232;-74
2020/12/23 22:12:53;;;;;;;2.07;1.97;;;13.90;48.10;;;;;;10442218;28;20225;-74
2020/12/23 22:17:55;;;;;;;2.50;2.00;;;13.80;48.00;;;;;;10424722;28;20233;-74
2020/12/23 22:22:58;;;;;;;2.00;1.90;;;13.70;47.90;;;;;;10432497;28;20229;-74
2020/12/23 22:28:00;;;;;;;1.93;1.83;;;13.70;48.10;;;;;;10442286;28;20241;-73
2020/12/23 22:33:02;;;;;;;1.70;1.60;;;13.70;48.10;;;;;;10446642;28;20236;-73
2020/12/23 22:38:05;;;;;;;1.87;1.77;;;13.70;48.10;;;;;;10443868;28;20601;-74
2020/12/23 22:43:08;;;;;;;1.97;1.87;;;13.70;48.40;;;;;;10439439;28;20233;-73
2020/12/23 22:48:10;;;;;;;1.90;1.80;;;13.70;48.20;;;;;;10434414;28;20905;-73
2020/12/23 22:53:13;;;;;;;2.50;2.30;;;13.70;48.30;;;;;;10429951;28;20225;-74
2020/12/23 22:58:15;;;;;;;2.20;2.10;;;13.70;48.50;;;;;;10425291;28;20229;-74
2020/12/23 23:03:20;;;;;;;2.47;2.00;;;13.70;48.30;;;;;;10429531;28;20616;-74
2020/12/23 23:08:23;;;;;;;2.43;2.23;;;13.70;48.30;;;;;;10425653;28;20251;-74
2020/12/23 23:13:25;;;;;;;2.50;2.30;;;13.70;48.60;;;;;;10426442;28;20217;-74
2020/12/23 23:18:27;;;;;;;2.97;2.77;;;13.70;48.30;;;;;;10440216;28;20233;-74
2020/12/23 23:23:30;;;;;;;3.10;2.90;;;13.70;48.30;;;;;;10440989;28;20225;-74
2020/12/23 23:28:33;;;;;;;3.07;2.73;;;13.70;48.70;;;;;;10429286;28;20237;-75
2020/12/23 23:33:35;;;;;;;2.90;2.70;;;13.70;48.60;;;;;;10423588;28;20679;-74
2020/12/23 23:38:38;;;;;;;3.00;2.80;;;13.70;48.50;;;;;;10428326;28;20638;-74
2020/12/23 23:43:41;;;;;;;2.70;2.50;;;13.70;48.70;;;;;;10409473;28;20567;-74
2020/12/23 23:48:43;;;;;;;2.17;2.07;;;13.60;48.40;;;;;;10424698;28;20232;-74
2020/12/23 23:53:46;;;;;;;2.47;2.30;;;13.60;48.60;;;;;;10410220;28;20235;-75
2020/12/23 23:58:48;;;;;;;2.90;2.70;;;13.60;48.90;;;;;;10423913;28;20230;-74
